sensor_id;sensor_type;location;lat;lon;timestamp;P1;durP1;ratioP1;P2;durP2;ratioP2
30593;SDS011;33199;47.590;8.300;2022-07-22T00:01:25;1.70;;;1.60;;
30593;SDS011;33199;47.590;8.300;2022-07-22T00:03:51;1.63;;;1.52;;
30593;SDS011;33199;47.590;8.300;2022-07-22T00:06:17;1.75;;;1.65;;
30593;SDS011;33199;47.590;8.300;2022-07-22T00:08:42;1.45;;;1.30;;
30593;SDS011;33199;47.590;8.300;2022-07-22T00:11:08;1.52;;;1.50;;
30593;SDS011;33199;47.590;8.300;2022-07-22T00:13:33;1.63;;;1.60;;
30593;SDS011;33199;47.590;8.300;2022-07-22T00:15:59;1.38;;;1.38;;
30593;SDS011;33199;47.590;8.300;2022-07-22T00:18:25;1.48;;;1.42;;
30593;SDS011;33199;47.590;8.300;2022-07-22T00:20:50;1.83;;;1.73;;
30593;SDS011;33199;47.590;8.300;2022-07-22T00:23:16;1.50;;;1.40;;
30593;SDS011;33199;47.590;8.300;2022-07-22T00:25:41;1.50;;;1.40;;
30593;SDS011;33199;47.590;8.300;2022-07-22T00:28:07;1.40;;;1.30;;
30593;SDS011;33199;47.590;8.300;2022-07-22T00:30:33;1.60;;;1.50;;
30593;SDS011;33199;47.590;8.300;2022-07-22T00:32:59;1.65;;;1.58;;
30593;SDS011;33199;47.590;8.300;2022-07-22T00:35:24;1.73;;;1.63;;
30593;SDS011;33199;47.590;8.300;2022-07-22T00:37:50;1.48;;;1.42;;
30593;SDS011;33199;47.590;8.300;2022-07-22T00:40:16;2.35;;;1.50;;
30593;SDS011;33199;47.590;8.300;2022-07-22T00:42:41;1.33;;;1.30;;
30593;SDS011;33199;47.590;8.300;2022-07-22T00:45:07;1.42;;;1.33;;
30593;SDS011;33199;47.590;8.300;2022-07-22T00:47:34;1.33;;;1.33;;
30593;SDS011;33199;47.590;8.300;2022-07-22T00:50:00;1.50;;;1.45;;
30593;SDS011;33199;47.590;8.300;2022-07-22T00:52:26;1.40;;;1.33;;
30593;SDS011;33199;47.590;8.300;2022-07-22T00:54:52;1.60;;;1.48;;
30593;SDS011;33199;47.590;8.300;2022-07-22T00:57:18;1.73;;;1.63;;
30593;SDS011;33199;47.590;8.300;2022-07-22T00:59:43;1.52;;;1.42;;
30593;SDS011;33199;47.590;8.300;2022-07-22T01:02:09;1.60;;;1.50;;
30593;SDS011;33199;47.590;8.300;2022-07-22T01:04:35;1.55;;;1.50;;
30593;SDS011;33199;47.590;8.300;2022-07-22T01:07:01;1.40;;;1.30;;
30593;SDS011;33199;47.590;8.300;2022-07-22T01:09:27;1.40;;;1.00;;
30593;SDS011;33199;47.590;8.300;2022-07-22T01:11:53;1.23;;;1.23;;
30593;SDS011;33199;47.590;8.300;2022-07-22T01:14:18;1.50;;;1.40;;
30593;SDS011;33199;47.590;8.300;2022-07-22T01:16:44;1.50;;;1.42;;
30593;SDS011;33199;47.590;8.300;2022-07-22T01:19:10;1.35;;;1.35;;
30593;SDS011;33199;47.590;8.300;2022-07-22T01:21:35;1.40;;;1.30;;
30593;SDS011;33199;47.590;8.300;2022-07-22T01:24:01;1.05;;;1.05;;
30593;SDS011;33199;47.590;8.300;2022-07-22T01:26:28;1.30;;;1.20;;
30593;SDS011;33199;47.590;8.300;2022-07-22T01:28:53;1.48;;;1.33;;
30593;SDS011;33199;47.590;8.300;2022-07-22T01:31:19;1.58;;;1.48;;
30593;SDS011;33199;47.590;8.300;2022-07-22T01:33:45;1.60;;;1.50;;
30593;SDS011;33199;47.590;8.300;2022-07-22T01:36:11;1.55;;;1.45;;
30593;SDS011;33199;47.590;8.300;2022-07-22T01:38:36;1.58;;;1.48;;
30593;SDS011;33199;47.590;8.300;2022-07-22T01:41:02;1.58;;;1.48;;
30593;SDS011;33199;47.590;8.300;2022-07-22T01:43:28;1.60;;;1.50;;
30593;SDS011;33199;47.590;8.300;2022-07-22T01:45:54;1.55;;;1.38;;
30593;SDS011;33199;47.590;8.300;2022-07-22T01:48:20;1.60;;;1.50;;
30593;SDS011;33199;47.590;8.300;2022-07-22T01:50:46;1.60;;;1.50;;
30593;SDS011;33199;47.590;8.300;2022-07-22T01:53:16;1.42;;;1.38;;
30593;SDS011;33199;47.590;8.300;2022-07-22T01:55:43;1.30;;;1.30;;
30593;SDS011;33199;47.590;8.300;2022-07-22T01:58:08;1.30;;;1.30;;
30593;SDS011;33199;47.590;8.300;2022-07-22T02:00:34;1.20;;;1.20;;
30593;SDS011;33199;47.590;8.300;2022-07-22T02:03:01;1.33;;;1.33;;
30593;SDS011;33199;47.590;8.300;2022-07-22T02:05:27;1.45;;;1.35;;
30593;SDS011;33199;47.590;8.300;2022-07-22T02:07:53;1.40;;;1.40;;
30593;SDS011;33199;47.590;8.300;2022-07-22T02:10:28;1.52;;;1.42;;
30593;SDS011;33199;47.590;8.300;2022-07-22T02:12:54;3.70;;;1.27;;
30593;SDS011;33199;47.590;8.300;2022-07-22T02:15:20;1.60;;;1.50;;
30593;SDS011;33199;47.590;8.300;2022-07-22T02:17:45;1.60;;;1.50;;
30593;SDS011;33199;47.590;8.300;2022-07-22T02:20:11;1.42;;;1.42;;
30593;SDS011;33199;47.590;8.300;2022-07-22T02:22:37;1.40;;;1.40;;
30593;SDS011;33199;47.590;8.300;2022-07-22T02:25:02;1.85;;;1.33;;
30593;SDS011;33199;47.590;8.300;2022-07-22T02:27:28;1.40;;;1.35;;
30593;SDS011;33199;47.590;8.300;2022-07-22T02:29:54;1.27;;;1.27;;
30593;SDS011;33199;47.590;8.300;2022-07-22T02:32:20;1.42;;;1.42;;
30593;SDS011;33199;47.590;8.300;2022-07-22T02:34:45;1.80;;;1.70;;
30593;SDS011;33199;47.590;8.300;2022-07-22T02:37:11;1.58;;;1.48;;
30593;SDS011;33199;47.590;8.300;2022-07-22T02:39:36;1.80;;;1.70;;
30593;SDS011;33199;47.590;8.300;2022-07-22T02:42:02;1.20;;;1.20;;
30593;SDS011;33199;47.590;8.300;2022-07-22T02:44:28;1.60;;;1.50;;
30593;SDS011;33199;47.590;8.300;2022-07-22T02:46:53;1.38;;;1.38;;
30593;SDS011;33199;47.590;8.300;2022-07-22T02:49:19;1.50;;;1.40;;
30593;SDS011;33199;47.590;8.300;2022-07-22T02:51:44;1.23;;;1.23;;
30593;SDS011;33199;47.590;8.300;2022-07-22T02:54:10;1.40;;;1.40;;
30593;SDS011;33199;47.590;8.300;2022-07-22T02:56:35;1.45;;;1.35;;
30593;SDS011;33199;47.590;8.300;2022-07-22T02:59:01;1.50;;;1.40;;
30593;SDS011;33199;47.590;8.300;2022-07-22T03:01:27;1.52;;;1.42;;
30593;SDS011;33199;47.590;8.300;2022-07-22T03:03:52;1.80;;;1.70;;
30593;SDS011;33199;47.590;8.300;2022-07-22T03:06:18;1.95;;;1.85;;
30593;SDS011;33199;47.590;8.300;2022-07-22T03:08:43;1.50;;;1.40;;
30593;SDS011;33199;47.590;8.300;2022-07-22T03:11:09;1.70;;;1.60;;
30593;SDS011;33199;47.590;8.300;2022-07-22T03:13:34;3.08;;;1.60;;
30593;SDS011;33199;47.590;8.300;2022-07-22T03:16:00;1.50;;;1.40;;
30593;SDS011;33199;47.590;8.300;2022-07-22T03:18:26;1.45;;;1.35;;
30593;SDS011;33199;47.590;8.300;2022-07-22T03:20:51;1.60;;;1.50;;
30593;SDS011;33199;47.590;8.300;2022-07-22T03:23:17;1.63;;;1.52;;
30593;SDS011;33199;47.590;8.300;2022-07-22T03:25:43;1.40;;;1.40;;
30593;SDS011;33199;47.590;8.300;2022-07-22T03:28:08;1.90;;;1.80;;
30593;SDS011;33199;47.590;8.300;2022-07-22T03:30:34;1.10;;;1.10;;
30593;SDS011;33199;47.590;8.300;2022-07-22T03:32:59;1.38;;;1.30;;
30593;SDS011;33199;47.590;8.300;2022-07-22T03:35:25;1.48;;;1.38;;
30593;SDS011;33199;47.590;8.300;2022-07-22T03:37:51;1.23;;;1.23;;
30593;SDS011;33199;47.590;8.300;2022-07-22T03:40:16;1.50;;;1.45;;
30593;SDS011;33199;47.590;8.300;2022-07-22T03:42:42;1.35;;;1.30;;
30593;SDS011;33199;47.590;8.300;2022-07-22T03:45:08;1.35;;;1.30;;
30593;SDS011;33199;47.590;8.300;2022-07-22T03:47:34;1.67;;;1.60;;
30593;SDS011;33199;47.590;8.300;2022-07-22T03:50:00;1.33;;;1.33;;
30593;SDS011;33199;47.590;8.300;2022-07-22T03:52:27;1.48;;;1.38;;
30593;SDS011;33199;47.590;8.300;2022-07-22T03:54:53;1.50;;;1.40;;
30593;SDS011;33199;47.590;8.300;2022-07-22T03:57:19;1.40;;;1.30;;
30593;SDS011;33199;47.590;8.300;2022-07-22T03:59:45;1.23;;;1.20;;
30593;SDS011;33199;47.590;8.300;2022-07-22T04:02:10;1.80;;;1.70;;
30593;SDS011;33199;47.590;8.300;2022-07-22T04:04:36;1.58;;;1.48;;
30593;SDS011;33199;47.590;8.300;2022-07-22T04:07:02;4.47;;;2.78;;
30593;SDS011;33199;47.590;8.300;2022-07-22T04:09:27;6.60;;;2.65;;
30593;SDS011;33199;47.590;8.300;2022-07-22T04:11:53;6.70;;;2.78;;
30593;SDS011;33199;47.590;8.300;2022-07-22T04:14:18;2.75;;;2.47;;
30593;SDS011;33199;47.590;8.300;2022-07-22T04:16:44;2.90;;;2.42;;
30593;SDS011;33199;47.590;8.300;2022-07-22T04:19:10;5.07;;;2.40;;
30593;SDS011;33199;47.590;8.300;2022-07-22T04:21:36;3.42;;;2.33;;
30593;SDS011;33199;47.590;8.300;2022-07-22T04:24:02;4.32;;;2.33;;
30593;SDS011;33199;47.590;8.300;2022-07-22T04:26:28;3.05;;;2.10;;
30593;SDS011;33199;47.590;8.300;2022-07-22T04:28:53;4.80;;;2.25;;
30593;SDS011;33199;47.590;8.300;2022-07-22T04:31:19;2.97;;;2.08;;
30593;SDS011;33199;47.590;8.300;2022-07-22T04:33:45;3.00;;;2.45;;
30593;SDS011;33199;47.590;8.300;2022-07-22T04:36:10;2.33;;;2.10;;
30593;SDS011;33199;47.590;8.300;2022-07-22T04:38:36;3.33;;;2.15;;
30593;SDS011;33199;47.590;8.300;2022-07-22T04:41:01;2.88;;;2.50;;
30593;SDS011;33199;47.590;8.300;2022-07-22T04:43:27;2.42;;;2.22;;
30593;SDS011;33199;47.590;8.300;2022-07-22T04:45:53;3.45;;;2.30;;
30593;SDS011;33199;47.590;8.300;2022-07-22T04:48:19;2.22;;;2.10;;
30593;SDS011;33199;47.590;8.300;2022-07-22T04:50:45;2.60;;;2.40;;
30593;SDS011;33199;47.590;8.300;2022-07-22T04:53:10;2.15;;;2.05;;
30593;SDS011;33199;47.590;8.300;2022-07-22T04:55:36;3.20;;;2.20;;
30593;SDS011;33199;47.590;8.300;2022-07-22T04:58:02;2.40;;;2.20;;
30593;SDS011;33199;47.590;8.300;2022-07-22T05:00:27;2.20;;;2.10;;
30593;SDS011;33199;47.590;8.300;2022-07-22T05:02:53;4.10;;;2.20;;
30593;SDS011;33199;47.590;8.300;2022-07-22T05:05:19;2.70;;;2.30;;
30593;SDS011;33199;47.590;8.300;2022-07-22T05:07:45;3.83;;;2.35;;
30593;SDS011;33199;47.590;8.300;2022-07-22T05:10:11;1.95;;;1.77;;
30593;SDS011;33199;47.590;8.300;2022-07-22T05:12:37;2.95;;;2.13;;
30593;SDS011;33199;47.590;8.300;2022-07-22T05:15:02;3.45;;;2.20;;
30593;SDS011;33199;47.590;8.300;2022-07-22T05:17:29;2.08;;;1.98;;
30593;SDS011;33199;47.590;8.300;2022-07-22T05:19:55;2.22;;;1.98;;
30593;SDS011;33199;47.590;8.300;2022-07-22T05:22:20;3.83;;;2.42;;
30593;SDS011;33199;47.590;8.300;2022-07-22T05:24:46;3.38;;;2.35;;
30593;SDS011;33199;47.590;8.300;2022-07-22T05:27:11;2.75;;;2.10;;
30593;SDS011;33199;47.590;8.300;2022-07-22T05:29:37;2.00;;;1.90;;
30593;SDS011;33199;47.590;8.300;2022-07-22T05:32:02;2.22;;;2.10;;
30593;SDS011;33199;47.590;8.300;2022-07-22T05:34:28;2.03;;;1.92;;
30593;SDS011;33199;47.590;8.300;2022-07-22T05:36:54;1.80;;;1.70;;
30593;SDS011;33199;47.590;8.300;2022-07-22T05:39:20;2.30;;;2.10;;
30593;SDS011;33199;47.590;8.300;2022-07-22T05:41:45;2.00;;;1.90;;
30593;SDS011;33199;47.590;8.300;2022-07-22T05:44:11;2.40;;;2.20;;
30593;SDS011;33199;47.590;8.300;2022-07-22T05:46:37;2.33;;;2.22;;
30593;SDS011;33199;47.590;8.300;2022-07-22T05:49:03;2.67;;;2.45;;
30593;SDS011;33199;47.590;8.300;2022-07-22T05:51:28;2.40;;;2.20;;
30593;SDS011;33199;47.590;8.300;2022-07-22T05:53:54;2.00;;;1.75;;
30593;SDS011;33199;47.590;8.300;2022-07-22T05:56:19;2.13;;;2.00;;
30593;SDS011;33199;47.590;8.300;2022-07-22T05:58:45;2.28;;;2.17;;
30593;SDS011;33199;47.590;8.300;2022-07-22T06:01:11;2.20;;;2.00;;
30593;SDS011;33199;47.590;8.300;2022-07-22T06:03:37;2.35;;;2.15;;
30593;SDS011;33199;47.590;8.300;2022-07-22T06:06:03;2.20;;;2.10;;
30593;SDS011;33199;47.590;8.300;2022-07-22T06:08:30;2.50;;;2.03;;
30593;SDS011;33199;47.590;8.300;2022-07-22T06:10:57;2.10;;;1.90;;
30593;SDS011;33199;47.590;8.300;2022-07-22T06:13:22;2.97;;;2.00;;
30593;SDS011;33199;47.590;8.300;2022-07-22T06:15:48;2.30;;;2.10;;
30593;SDS011;33199;47.590;8.300;2022-07-22T06:18:14;2.35;;;1.98;;
30593;SDS011;33199;47.590;8.300;2022-07-22T06:20:40;2.15;;;2.05;;
30593;SDS011;33199;47.590;8.300;2022-07-22T06:23:05;1.92;;;1.83;;
30593;SDS011;33199;47.590;8.300;2022-07-22T06:25:31;2.25;;;2.15;;
30593;SDS011;33199;47.590;8.300;2022-07-22T06:27:57;2.08;;;1.98;;
30593;SDS011;33199;47.590;8.300;2022-07-22T06:30:22;1.95;;;1.85;;
30593;SDS011;33199;47.590;8.300;2022-07-22T06:32:48;2.10;;;1.90;;
30593;SDS011;33199;47.590;8.300;2022-07-22T06:35:14;2.13;;;2.03;;
30593;SDS011;33199;47.590;8.300;2022-07-22T06:37:39;2.47;;;2.10;;
30593;SDS011;33199;47.590;8.300;2022-07-22T06:40:05;3.17;;;2.00;;
30593;SDS011;33199;47.590;8.300;2022-07-22T06:42:31;3.13;;;2.17;;
30593;SDS011;33199;47.590;8.300;2022-07-22T06:44:57;2.05;;;1.95;;
30593;SDS011;33199;47.590;8.300;2022-07-22T06:47:22;1.92;;;1.83;;
30593;SDS011;33199;47.590;8.300;2022-07-22T06:49:48;2.25;;;2.05;;
30593;SDS011;33199;47.590;8.300;2022-07-22T06:52:13;2.10;;;2.00;;
30593;SDS011;33199;47.590;8.300;2022-07-22T06:54:39;2.33;;;2.17;;
30593;SDS011;33199;47.590;8.300;2022-07-22T06:57:04;2.05;;;1.95;;
30593;SDS011;33199;47.590;8.300;2022-07-22T06:59:30;2.15;;;1.90;;
30593;SDS011;33199;47.590;8.300;2022-07-22T07:01:55;2.03;;;1.90;;
30593;SDS011;33199;47.590;8.300;2022-07-22T07:04:21;2.97;;;2.00;;
30593;SDS011;33199;47.590;8.300;2022-07-22T07:06:46;2.30;;;2.10;;
30593;SDS011;33199;47.590;8.300;2022-07-22T07:09:12;1.98;;;1.80;;
30593;SDS011;33199;47.590;8.300;2022-07-22T07:11:38;2.17;;;2.03;;
30593;SDS011;33199;47.590;8.300;2022-07-22T07:14:03;2.20;;;2.10;;
30593;SDS011;33199;47.590;8.300;2022-07-22T07:16:29;3.03;;;1.95;;
30593;SDS011;33199;47.590;8.300;2022-07-22T07:18:54;2.30;;;2.10;;
30593;SDS011;33199;47.590;8.300;2022-07-22T07:21:20;2.03;;;1.92;;
30593;SDS011;33199;47.590;8.300;2022-07-22T07:23:46;1.80;;;1.70;;
30593;SDS011;33199;47.590;8.300;2022-07-22T07:26:12;2.22;;;2.03;;
30593;SDS011;33199;47.590;8.300;2022-07-22T07:28:38;1.90;;;1.80;;
30593;SDS011;33199;47.590;8.300;2022-07-22T07:31:04;2.33;;;2.13;;
30593;SDS011;33199;47.590;8.300;2022-07-22T07:33:29;1.92;;;1.83;;
30593;SDS011;33199;47.590;8.300;2022-07-22T07:35:55;2.03;;;1.92;;
30593;SDS011;33199;47.590;8.300;2022-07-22T07:38:21;1.90;;;1.80;;
30593;SDS011;33199;47.590;8.300;2022-07-22T07:40:46;2.00;;;1.90;;
30593;SDS011;33199;47.590;8.300;2022-07-22T07:43:12;2.20;;;2.10;;
30593;SDS011;33199;47.590;8.300;2022-07-22T07:45:38;1.98;;;1.88;;
30593;SDS011;33199;47.590;8.300;2022-07-22T07:48:04;1.98;;;1.88;;
30593;SDS011;33199;47.590;8.300;2022-07-22T07:50:30;1.90;;;1.80;;
30593;SDS011;33199;47.590;8.300;2022-07-22T07:52:55;1.80;;;1.70;;
30593;SDS011;33199;47.590;8.300;2022-07-22T07:55:22;1.98;;;1.88;;
30593;SDS011;33199;47.590;8.300;2022-07-22T07:57:48;1.90;;;1.80;;
30593;SDS011;33199;47.590;8.300;2022-07-22T08:00:15;1.88;;;1.77;;
30593;SDS011;33199;47.590;8.300;2022-07-22T08:02:42;2.30;;;2.20;;
30593;SDS011;33199;47.590;8.300;2022-07-22T08:05:08;2.20;;;2.10;;
30593;SDS011;33199;47.590;8.300;2022-07-22T08:07:34;2.22;;;1.90;;
30593;SDS011;33199;47.590;8.300;2022-07-22T08:10:01;2.15;;;2.03;;
30593;SDS011;33199;47.590;8.300;2022-07-22T08:12:29;2.35;;;2.15;;
30593;SDS011;33199;47.590;8.300;2022-07-22T08:14:54;2.00;;;1.90;;
30593;SDS011;33199;47.590;8.300;2022-07-22T08:17:20;2.05;;;1.90;;
30593;SDS011;33199;47.590;8.300;2022-07-22T08:19:45;2.88;;;1.80;;
30593;SDS011;33199;47.590;8.300;2022-07-22T08:22:11;2.75;;;1.90;;
30593;SDS011;33199;47.590;8.300;2022-07-22T08:24:37;1.92;;;1.83;;
30593;SDS011;33199;47.590;8.300;2022-07-22T08:27:02;2.03;;;1.92;;
30593;SDS011;33199;47.590;8.300;2022-07-22T08:29:28;2.08;;;1.98;;
30593;SDS011;33199;47.590;8.300;2022-07-22T08:31:53;2.25;;;2.00;;
30593;SDS011;33199;47.590;8.300;2022-07-22T08:34:19;10.43;;;2.00;;
30593;SDS011;33199;47.590;8.300;2022-07-22T08:36:45;1.95;;;1.85;;
30593;SDS011;33199;47.590;8.300;2022-07-22T08:39:11;2.08;;;1.90;;
30593;SDS011;33199;47.590;8.300;2022-07-22T08:41:37;2.35;;;2.15;;
30593;SDS011;33199;47.590;8.300;2022-07-22T08:44:04;2.45;;;2.25;;
30593;SDS011;33199;47.590;8.300;2022-07-22T08:46:31;2.35;;;2.15;;
30593;SDS011;33199;47.590;8.300;2022-07-22T08:48:57;2.03;;;1.92;;
30593;SDS011;33199;47.590;8.300;2022-07-22T08:51:25;2.85;;;2.65;;
30593;SDS011;33199;47.590;8.300;2022-07-22T08:53:51;4.68;;;3.75;;
30593;SDS011;33199;47.590;8.300;2022-07-22T08:56:17;4.50;;;4.10;;
30593;SDS011;33199;47.590;8.300;2022-07-22T08:58:43;4.90;;;3.88;;
30593;SDS011;33199;47.590;8.300;2022-07-22T09:01:10;6.63;;;3.90;;
30593;SDS011;33199;47.590;8.300;2022-07-22T09:03:48;5.50;;;3.53;;
30593;SDS011;33199;47.590;8.300;2022-07-22T09:06:16;3.95;;;3.60;;
30593;SDS011;33199;47.590;8.300;2022-07-22T09:09:03;4.00;;;3.60;;
30593;SDS011;33199;47.590;8.300;2022-07-22T09:11:30;5.10;;;3.78;;
30593;SDS011;33199;47.590;8.300;2022-07-22T09:13:57;5.13;;;3.65;;
30593;SDS011;33199;47.590;8.300;2022-07-22T09:19:09;4.43;;;3.92;;
30593;SDS011;33199;47.590;8.300;2022-07-22T09:21:36;4.00;;;3.60;;
30593;SDS011;33199;47.590;8.300;2022-07-22T09:26:34;3.65;;;3.30;;
30593;SDS011;33199;47.590;8.300;2022-07-22T09:29:01;3.80;;;3.50;;
30593;SDS011;33199;47.590;8.300;2022-07-22T09:31:32;4.45;;;4.05;;
30593;SDS011;33199;47.590;8.300;2022-07-22T09:34:01;5.05;;;3.63;;
30593;SDS011;33199;47.590;8.300;2022-07-22T09:36:28;3.83;;;3.47;;
30593;SDS011;33199;47.590;8.300;2022-07-22T09:38:54;3.90;;;3.58;;
30593;SDS011;33199;47.590;8.300;2022-07-22T09:41:21;3.75;;;3.45;;
30593;SDS011;33199;47.590;8.300;2022-07-22T09:43:47;4.00;;;3.55;;
30593;SDS011;33199;47.590;8.300;2022-07-22T09:46:12;4.13;;;3.70;;
30593;SDS011;33199;47.590;8.300;2022-07-22T09:48:38;3.90;;;3.60;;
30593;SDS011;33199;47.590;8.300;2022-07-22T09:51:05;5.05;;;3.85;;
30593;SDS011;33199;47.590;8.300;2022-07-22T09:53:31;4.00;;;3.60;;
30593;SDS011;33199;47.590;8.300;2022-07-22T09:55:59;3.70;;;3.40;;
30593;SDS011;33199;47.590;8.300;2022-07-22T09:58:26;4.22;;;3.83;;
30593;SDS011;33199;47.590;8.300;2022-07-22T10:00:52;5.18;;;3.92;;
30593;SDS011;33199;47.590;8.300;2022-07-22T10:05:55;6.50;;;3.70;;
30593;SDS011;33199;47.590;8.300;2022-07-22T10:08:22;3.83;;;3.50;;
30593;SDS011;33199;47.590;8.300;2022-07-22T10:10:50;4.18;;;3.88;;
30593;SDS011;33199;47.590;8.300;2022-07-22T10:13:17;4.57;;;4.27;;
30593;SDS011;33199;47.590;8.300;2022-07-22T10:15:44;4.38;;;3.85;;
30593;SDS011;33199;47.590;8.300;2022-07-22T10:18:13;3.85;;;3.55;;
30593;SDS011;33199;47.590;8.300;2022-07-22T10:20:41;4.20;;;3.78;;
30593;SDS011;33199;47.590;8.300;2022-07-22T10:23:07;5.05;;;3.80;;
30593;SDS011;33199;47.590;8.300;2022-07-22T10:25:56;4.50;;;4.10;;
30593;SDS011;33199;47.590;8.300;2022-07-22T10:28:22;7.07;;;3.65;;
30593;SDS011;33199;47.590;8.300;2022-07-22T10:30:53;4.00;;;3.60;;
30593;SDS011;33199;47.590;8.300;2022-07-22T10:33:38;3.80;;;3.50;;
30593;SDS011;33199;47.590;8.300;2022-07-22T10:36:05;4.43;;;3.97;;
30593;SDS011;33199;47.590;8.300;2022-07-22T10:38:31;4.25;;;3.95;;
30593;SDS011;33199;47.590;8.300;2022-07-22T10:40:58;4.25;;;3.88;;
30593;SDS011;33199;47.590;8.300;2022-07-22T10:45:51;4.15;;;3.72;;
30593;SDS011;33199;47.590;8.300;2022-07-22T10:48:20;4.07;;;3.60;;
30593;SDS011;33199;47.590;8.300;2022-07-22T10:50:48;5.00;;;3.95;;
30593;SDS011;33199;47.590;8.300;2022-07-22T10:53:17;4.13;;;3.83;;
30593;SDS011;33199;47.590;8.300;2022-07-22T11:01:01;4.50;;;4.10;;
30593;SDS011;33199;47.590;8.300;2022-07-22T11:03:31;5.28;;;3.50;;
30593;SDS011;33199;47.590;8.300;2022-07-22T11:06:12;4.88;;;3.20;;
30593;SDS011;33199;47.590;8.300;2022-07-22T11:08:38;3.90;;;3.60;;
30593;SDS011;33199;47.590;8.300;2022-07-22T11:11:04;3.92;;;3.63;;
30593;SDS011;33199;47.590;8.300;2022-07-22T11:13:39;4.20;;;3.88;;
30593;SDS011;33199;47.590;8.300;2022-07-22T11:16:40;3.75;;;3.45;;
30593;SDS011;33199;47.590;8.300;2022-07-22T11:18:59;4.10;;;3.80;;
30593;SDS011;33199;47.590;8.300;2022-07-22T11:23:55;4.20;;;3.78;;
30593;SDS011;33199;47.590;8.300;2022-07-22T11:26:26;4.53;;;3.70;;
30593;SDS011;33199;47.590;8.300;2022-07-22T11:29:00;4.50;;;4.10;;
30593;SDS011;33199;47.590;8.300;2022-07-22T11:31:26;3.80;;;3.50;;
30593;SDS011;33199;47.590;8.300;2022-07-22T11:33:52;3.67;;;3.47;;
30593;SDS011;33199;47.590;8.300;2022-07-22T11:36:31;4.03;;;3.65;;
30593;SDS011;33199;47.590;8.300;2022-07-22T11:38:57;4.40;;;4.00;;
30593;SDS011;33199;47.590;8.300;2022-07-22T11:41:23;3.97;;;3.67;;
30593;SDS011;33199;47.590;8.300;2022-07-22T11:43:49;4.47;;;4.07;;
30593;SDS011;33199;47.590;8.300;2022-07-22T11:46:16;4.70;;;4.30;;
30593;SDS011;33199;47.590;8.300;2022-07-22T11:48:43;4.25;;;3.85;;
30593;SDS011;33199;47.590;8.300;2022-07-22T11:51:09;3.30;;;3.10;;
30593;SDS011;33199;47.590;8.300;2022-07-22T11:53:37;4.37;;;4.07;;
30593;SDS011;33199;47.590;8.300;2022-07-22T11:56:04;4.17;;;3.77;;
30593;SDS011;33199;47.590;8.300;2022-07-22T11:58:45;4.03;;;3.65;;
30593;SDS011;33199;47.590;8.300;2022-07-22T12:01:15;3.58;;;3.38;;
30593;SDS011;33199;47.590;8.300;2022-07-22T12:03:49;4.55;;;4.18;;
30593;SDS011;33199;47.590;8.300;2022-07-22T12:06:17;4.38;;;3.97;;
30593;SDS011;33199;47.590;8.300;2022-07-22T12:08:50;4.57;;;4.20;;
30593;SDS011;33199;47.590;8.300;2022-07-22T12:11:21;4.13;;;3.78;;
30593;SDS011;33199;47.590;8.300;2022-07-22T12:13:48;3.83;;;3.55;;
30593;SDS011;33199;47.590;8.300;2022-07-22T12:16:25;4.07;;;3.72;;
30593;SDS011;33199;47.590;8.300;2022-07-22T12:18:54;4.03;;;3.53;;
30593;SDS011;33199;47.590;8.300;2022-07-22T12:21:22;4.00;;;3.70;;
30593;SDS011;33199;47.590;8.300;2022-07-22T12:23:56;4.70;;;3.90;;
30593;SDS011;33199;47.590;8.300;2022-07-22T12:29:12;4.35;;;3.95;;
30593;SDS011;33199;47.590;8.300;2022-07-22T12:31:47;3.97;;;3.67;;
30593;SDS011;33199;47.590;8.300;2022-07-22T12:34:13;4.20;;;3.80;;
30593;SDS011;33199;47.590;8.300;2022-07-22T12:36:42;6.38;;;3.75;;
30593;SDS011;33199;47.590;8.300;2022-07-22T12:39:15;4.07;;;3.78;;
30593;SDS011;33199;47.590;8.300;2022-07-22T12:41:46;3.92;;;3.70;;
30593;SDS011;33199;47.590;8.300;2022-07-22T12:44:18;3.83;;;3.55;;
30593;SDS011;33199;47.590;8.300;2022-07-22T12:46:49;3.72;;;3.42;;
30593;SDS011;33199;47.590;8.300;2022-07-22T12:49:17;3.85;;;3.58;;
30593;SDS011;33199;47.590;8.300;2022-07-22T12:54:38;4.00;;;3.70;;
30593;SDS011;33199;47.590;8.300;2022-07-22T12:57:05;4.07;;;3.78;;
30593;SDS011;33199;47.590;8.300;2022-07-22T12:59:33;3.78;;;3.47;;
30593;SDS011;33199;47.590;8.300;2022-07-22T13:01:59;4.18;;;3.88;;
30593;SDS011;33199;47.590;8.300;2022-07-22T13:04:25;4.35;;;3.95;;
30593;SDS011;33199;47.590;8.300;2022-07-22T13:06:50;4.07;;;3.75;;
30593;SDS011;33199;47.590;8.300;2022-07-22T13:09:16;3.80;;;3.50;;
30593;SDS011;33199;47.590;8.300;2022-07-22T13:11:42;4.75;;;4.35;;
30593;SDS011;33199;47.590;8.300;2022-07-22T13:14:11;4.40;;;4.00;;
30593;SDS011;33199;47.590;8.300;2022-07-22T13:16:38;4.00;;;3.70;;
30593;SDS011;33199;47.590;8.300;2022-07-22T13:19:04;4.18;;;3.88;;
30593;SDS011;33199;47.590;8.300;2022-07-22T13:21:29;4.05;;;3.75;;
30593;SDS011;33199;47.590;8.300;2022-07-22T13:23:55;4.28;;;3.65;;
30593;SDS011;33199;47.590;8.300;2022-07-22T13:26:21;4.15;;;3.78;;
30593;SDS011;33199;47.590;8.300;2022-07-22T13:28:46;4.05;;;3.75;;
30593;SDS011;33199;47.590;8.300;2022-07-22T13:31:12;4.63;;;3.60;;
30593;SDS011;33199;47.590;8.300;2022-07-22T13:33:38;4.40;;;3.97;;
30593;SDS011;33199;47.590;8.300;2022-07-22T13:36:03;3.95;;;3.72;;
30593;SDS011;33199;47.590;8.300;2022-07-22T13:38:30;4.10;;;3.80;;
30593;SDS011;33199;47.590;8.300;2022-07-22T13:40:56;4.45;;;4.05;;
30593;SDS011;33199;47.590;8.300;2022-07-22T13:43:22;4.03;;;3.72;;
30593;SDS011;33199;47.590;8.300;2022-07-22T13:45:49;3.90;;;3.55;;
30593;SDS011;33199;47.590;8.300;2022-07-22T13:48:15;4.13;;;3.83;;
30593;SDS011;33199;47.590;8.300;2022-07-22T13:50:43;4.57;;;4.28;;
30593;SDS011;33199;47.590;8.300;2022-07-22T13:53:09;5.25;;;4.32;;
30593;SDS011;33199;47.590;8.300;2022-07-22T13:55:37;4.38;;;4.00;;
30593;SDS011;33199;47.590;8.300;2022-07-22T13:58:03;4.30;;;3.95;;
30593;SDS011;33199;47.590;8.300;2022-07-22T14:00:30;4.22;;;3.83;;
30593;SDS011;33199;47.590;8.300;2022-07-22T14:02:57;4.00;;;3.70;;
30593;SDS011;33199;47.590;8.300;2022-07-22T14:05:22;5.13;;;4.15;;
30593;SDS011;33199;47.590;8.300;2022-07-22T14:07:48;4.50;;;4.10;;
30593;SDS011;33199;47.590;8.300;2022-07-22T14:10:14;4.38;;;3.97;;
30593;SDS011;33199;47.590;8.300;2022-07-22T14:12:39;4.20;;;3.90;;
30593;SDS011;33199;47.590;8.300;2022-07-22T14:15:06;3.60;;;3.40;;
30593;SDS011;33199;47.590;8.300;2022-07-22T14:17:33;4.00;;;3.70;;
30593;SDS011;33199;47.590;8.300;2022-07-22T14:19:58;4.25;;;3.92;;
30593;SDS011;33199;47.590;8.300;2022-07-22T14:22:24;3.90;;;3.60;;
30593;SDS011;33199;47.590;8.300;2022-07-22T14:24:50;4.15;;;3.80;;
30593;SDS011;33199;47.590;8.300;2022-07-22T14:27:16;4.32;;;4.03;;
30593;SDS011;33199;47.590;8.300;2022-07-22T14:29:42;4.70;;;4.25;;
30593;SDS011;33199;47.590;8.300;2022-07-22T14:32:07;4.80;;;4.18;;
30593;SDS011;33199;47.590;8.300;2022-07-22T14:34:33;4.25;;;3.95;;
30593;SDS011;33199;47.590;8.300;2022-07-22T14:36:59;5.03;;;4.50;;
30593;SDS011;33199;47.590;8.300;2022-07-22T14:39:24;4.72;;;4.28;;
30593;SDS011;33199;47.590;8.300;2022-07-22T14:41:50;4.50;;;4.10;;
30593;SDS011;33199;47.590;8.300;2022-07-22T14:44:15;4.32;;;4.03;;
30593;SDS011;33199;47.590;8.300;2022-07-22T14:46:41;4.32;;;3.90;;
30593;SDS011;33199;47.590;8.300;2022-07-22T14:49:06;4.15;;;3.95;;
30593;SDS011;33199;47.590;8.300;2022-07-22T14:51:32;6.50;;;4.35;;
30593;SDS011;33199;47.590;8.300;2022-07-22T14:53:57;4.68;;;4.28;;
30593;SDS011;33199;47.590;8.300;2022-07-22T14:56:23;4.38;;;4.07;;
30593;SDS011;33199;47.590;8.300;2022-07-22T14:58:49;4.72;;;4.38;;
30593;SDS011;33199;47.590;8.300;2022-07-22T15:01:14;4.50;;;3.80;;
30593;SDS011;33199;47.590;8.300;2022-07-22T15:03:40;4.03;;;3.72;;
30593;SDS011;33199;47.590;8.300;2022-07-22T15:06:06;4.53;;;4.13;;
30593;SDS011;33199;47.590;8.300;2022-07-22T15:08:31;5.10;;;4.60;;